Aérodrome :
LOGIN :

S'inscrire | Disclaimer

   EN    FR    IT 

 










Légende :    VFR   VFR Marginal   IFR   IFR Intensif   IFR Très Intensif
Visi : 
Plafond : 
>= 8 km
>= 3000ft
5 à 8 km
1000 à 3000 ft
1500m à 5 km
500 à 1000 ft
800 à 1500m
200 à 500 ft
< 800m
< 200 ft
Symboles :   Orages  Brouillard  Fortes neiges  Fortes précipitations  Vent > 20 kt
SIGMETs :   Divers  Orages  Givrage  Turbulence  Onde Orograph.  Cendres Volcan.







- Altitude de l'aérodrome : 584 ft
- Voir les cartes d'approche


LFPV - Villacoublay Vélizy

DERNIER METAR :
  • 211330Z AUTO 02009KT 320V070 CAVOK 15/05 Q1032 NOSIG

METARs EXPIRÉS :
  • 211300Z AUTO 03007KT 320V050 CAVOK 14/04 Q1032 NOSIG
  • 211230Z AUTO 03008KT 340V070 CAVOK 14/05 Q1033 NOSIG
  • 211200Z AUTO 36009KT 320V040 CAVOK 14/05 Q1033 NOSIG
  • 211130Z AUTO 05008KT 010V090 9999 FEW035 13/05 Q1033 NOSIG
  • 211100Z AUTO 05005KT 340V100 CAVOK 13/05 Q1033 NOSIG

TAF TAF LFPV
Valide du 21 à 09h jusqu'au 22 à 09h UTC


210800Z 2109/2209 03005KT CAVOK
TEMPO 2202/2208 3000 BR BKN001
PROB30
TEMPO 2204/2206 0800 FG VV///
Pas de NOTAMs connus pour ce terrain.



MET'MAP, la Météo Aéronautique d'un coup d'oeil ! - Copyright ORBIFLY Décembre 2007 - Disclaimer

ORBIFLY MET'MAP TEAM :

Programmation & Développement : Alexandra Zaïnal
Conception & Développement : Baudouin d'Aumeries
Co-Programmation & Développement : Marc-Olivier Méhu
Soutien technique & logistique : Manuel Goepfert

Contact : metmap@orbifly.com




SOURCES & CREDITS :

   NOAA